Time;durP1;ratioP1;P1;durP2;ratioP2;P2;SDS_P1;SDS_P2;PMS_P1;PMS_P2;Temp;Humidity;BMP_temperature;BMP_pressure;BME280_temperature;BME280_humidity;BME280_pressure;Samples;Min_cycle;Max_cycle;Signal;HPM_P1;HPM_P2
2023/02/25 00:01:09;;;;;;;1.08;0.65;;;24.80;61.00;;;;;;5140739;23;20625;-48
2023/02/25 00:03:32;;;;;;;1.02;0.60;;;24.90;60.90;;;;;;5144081;23;20412;-45
2023/02/25 00:05:54;;;;;;;1.38;0.65;;;24.90;60.80;;;;;;5135338;23;20107;-47
2023/02/25 00:08:17;;;;;;;1.17;0.55;;;24.90;60.70;;;;;;5135691;23;20253;-46
2023/02/25 00:10:39;;;;;;;1.27;0.75;;;24.80;60.80;;;;;;5144394;23;20031;-48
2023/02/25 00:13:04;;;;;;;0.70;0.55;;;24.90;60.80;;;;;;5145087;23;20406;-47
2023/02/25 00:15:27;;;;;;;0.90;0.65;;;25.00;60.70;;;;;;5140266;23;20020;-49
2023/02/25 00:17:49;;;;;;;1.02;0.57;;;24.90;60.60;;;;;;5144305;23;20365;-46
2023/02/25 00:20:12;;;;;;;2.28;0.60;;;25.00;60.60;;;;;;5142312;23;20012;-49
2023/02/25 00:22:35;;;;;;;1.93;1.03;;;25.00;60.50;;;;;;5137006;23;20044;-48
2023/02/25 00:24:58;;;;;;;1.55;0.82;;;25.00;60.50;;;;;;5144946;23;20020;-49
2023/02/25 00:27:22;;;;;;;0.82;0.55;;;25.00;60.40;;;;;;5144968;23;20020;-47
2023/02/25 00:29:43;;;;;;;;;;;25.10;60.30;;;;;;5142848;23;20086;-47
2023/02/25 00:32:06;;;;;;;0.63;0.47;;;25.10;60.30;;;;;;5143570;23;19904;-50
2023/02/25 00:34:28;;;;;;;1.02;0.70;;;25.10;60.30;;;;;;5145027;23;20016;-45
2023/02/25 00:36:51;;;;;;;1.58;0.60;;;25.10;60.20;;;;;;5144652;23;20050;-46
2023/02/25 00:39:13;;;;;;;1.55;0.68;;;25.10;60.30;;;;;;5142954;23;20016;-47
2023/02/25 00:41:36;;;;;;;0.60;0.50;;;25.10;60.30;;;;;;5142458;23;20017;-48
2023/02/25 00:44:00;;;;;;;0.70;0.40;;;25.10;60.30;;;;;;5135169;23;20103;-48
2023/02/25 00:46:23;;;;;;;0.52;0.40;;;25.10;60.10;;;;;;5143026;23;20023;-44
2023/02/25 00:48:46;;;;;;;1.27;0.70;;;25.10;60.20;;;;;;5144273;23;20620;-46
2023/02/25 00:51:22;;;;;;;2.00;0.60;;;25.10;60.10;;;;;;5143481;23;20032;-49
2023/02/25 00:53:45;;;;;;;1.45;0.70;;;25.20;60.10;;;;;;5143961;23;20008;-48
2023/02/25 00:56:10;;;;;;;0.80;0.50;;;25.20;60.10;;;;;;5134915;23;20095;-52
2023/02/25 00:58:35;;;;;;;0.90;0.45;;;25.20;60.00;;;;;;5142200;23;20016;-51
2023/02/25 01:00:59;;;;;;;1.45;0.40;;;25.30;60.00;;;;;;5143628;23;20107;-48
2023/02/25 01:03:22;;;;;;;2.17;0.65;;;25.20;59.90;;;;;;5141903;23;20020;-48
2023/02/25 01:05:48;;;;;;;0.88;0.47;;;25.20;59.90;;;;;;5135562;23;20016;-48
2023/02/25 01:08:10;;;;;;;1.00;0.55;;;25.20;60.00;;;;;;5131294;23;20009;-49
2023/02/25 01:10:33;;;;;;;0.63;0.40;;;25.30;60.00;;;;;;5139737;23;20060;-48
2023/02/25 01:12:55;;;;;;;1.33;0.60;;;25.20;59.90;;;;;;5139542;23;20496;-49
2023/02/25 01:15:17;;;;;;;1.40;0.57;;;25.30;59.90;;;;;;5137307;23;20363;-47
2023/02/25 01:17:40;;;;;;;0.85;0.47;;;25.30;59.70;;;;;;5137995;23;20048;-46
2023/02/25 01:20:05;;;;;;;1.42;0.40;;;25.30;59.60;;;;;;5129511;23;20021;-49
2023/02/25 01:22:27;;;;;;;0.70;0.50;;;25.30;59.40;;;;;;5126382;23;20513;-50
2023/02/25 01:24:50;;;;;;;0.90;0.50;;;25.30;59.60;;;;;;5138395;23;20009;-46
2023/02/25 01:27:12;;;;;;;0.60;0.40;;;25.30;59.60;;;;;;5138002;23;20720;-47
2023/02/25 01:29:39;;;;;;;0.50;0.35;;;25.40;59.60;;;;;;5136403;23;20458;-50
2023/02/25 01:32:02;;;;;;;0.70;0.50;;;25.40;59.50;;;;;;5137419;23;20501;-47
2023/02/25 01:34:27;;;;;;;1.35;0.50;;;25.40;59.20;;;;;;5137917;23;20031;-47
2023/02/25 01:36:50;;;;;;;1.20;0.50;;;25.50;59.30;;;;;;5132462;23;20017;-47
2023/02/25 01:39:13;;;;;;;0.88;0.50;;;25.50;59.20;;;;;;5139521;23;20008;-45
2023/02/25 01:41:36;;;;;;;0.95;0.50;;;25.50;59.00;;;;;;5140131;23;20016;-47
2023/02/25 01:44:14;;;;;;;1.30;0.40;;;25.50;59.00;;;;;;5139889;23;20047;-49
2023/02/25 01:46:38;;;;;;;0.57;0.50;;;25.50;59.00;;;;;;5137721;23;20023;-47
2023/02/25 01:49:01;;;;;;;0.57;0.47;;;25.60;59.00;;;;;;5137359;23;20096;-48
2023/02/25 01:51:26;;;;;;;;;;;25.60;59.00;;;;;;5128456;23;20028;-47
2023/02/25 01:53:48;;;;;;;1.90;0.60;;;25.60;59.00;;;;;;5145704;23;20046;-47
2023/02/25 01:56:14;;;;;;;2.10;0.50;;;25.60;59.10;;;;;;5145317;23;20103;-46
2023/02/25 01:58:37;;;;;;;0.80;0.40;;;25.60;59.10;;;;;;5144175;23;20364;-44
2023/02/25 02:01:00;;;;;;;0.20;0.20;;;25.60;59.10;;;;;;5142579;23;20023;-48
2023/02/25 02:03:31;;;;;;;0.40;0.40;;;25.60;59.00;;;;;;5143750;23;20020;-48
2023/02/25 02:06:04;;;;;;;1.00;0.43;;;25.60;58.90;;;;;;5144211;23;20451;-45
2023/02/25 02:08:27;;;;;;;1.10;0.40;;;25.70;59.00;;;;;;5141854;23;20016;-45
2023/02/25 02:10:49;;;;;;;2.10;0.50;;;25.70;59.10;;;;;;5141100;23;20463;-46
2023/02/25 02:13:11;;;;;;;1.50;0.47;;;25.70;58.70;;;;;;5144752;23;20261;-48
2023/02/25 02:15:41;;;;;;;0.45;0.43;;;25.80;58.80;;;;;;5144830;23;20023;-46
2023/02/25 02:18:06;;;;;;;1.23;0.30;;;25.80;58.70;;;;;;5142078;23;20078;-46
2023/02/25 02:20:53;;;;;;;0.63;0.30;;;25.80;58.70;;;;;;5144362;23;20016;-44
2023/02/25 02:23:27;;;;;;;0.70;0.47;;;25.80;58.70;;;;;;5145335;23;20024;-44
2023/02/25 02:26:07;;;;;;;0.75;0.43;;;25.90;58.70;;;;;;5145375;23;20466;-45
2023/02/25 02:28:39;;;;;;;0.38;0.30;;;25.90;58.70;;;;;;5135985;23;20020;-44
2023/02/25 02:31:25;;;;;;;0.38;0.30;;;25.90;58.60;;;;;;5145764;23;20082;-44
2023/02/25 02:33:54;;;;;;;0.30;0.30;;;25.90;58.60;;;;;;5145212;23;20096;-47
2023/02/25 02:36:22;;;;;;;1.20;0.50;;;25.90;58.60;;;;;;5135585;23;20027;-45
2023/02/25 02:38:47;;;;;;;0.75;0.55;;;26.00;58.60;;;;;;5143891;23;20019;-49
2023/02/25 02:41:24;;;;;;;0.60;0.40;;;25.90;58.60;;;;;;5143933;23;20022;-49
2023/02/25 02:43:52;;;;;;;0.47;0.30;;;26.00;58.60;;;;;;5145179;23;20042;-47
2023/02/25 02:46:46;;;;;;;1.85;0.50;;;26.00;58.60;;;;;;5143600;23;20438;-49
2023/02/25 02:49:40;;;;;;;0.40;0.40;;;26.00;58.50;;;;;;5133458;23;20020;-50
2023/02/25 02:52:13;;;;;;;0.47;0.40;;;26.10;58.40;;;;;;5145764;23;20032;-46
2023/02/25 02:54:38;;;;;;;0.68;0.45;;;26.10;58.40;;;;;;5144824;23;20016;-47
2023/02/25 02:57:02;;;;;;;0.60;0.38;;;26.20;58.30;;;;;;5144544;23;20043;-46
2023/02/25 02:59:29;;;;;;;;;;;26.20;58.30;;;;;;5145582;23;20039;-47
2023/02/25 03:02:05;;;;;;;0.47;0.30;;;26.20;58.40;;;;;;5144249;23;20249;-48
2023/02/25 03:04:33;;;;;;;1.10;0.40;;;26.20;58.40;;;;;;5137216;23;20027;-46
2023/02/25 03:07:01;;;;;;;0.32;0.30;;;26.20;58.90;;;;;;5145432;23;20017;-50
2023/02/25 03:09:40;;;;;;;1.15;0.43;;;26.20;58.40;;;;;;5145525;23;20507;-47
2023/02/25 03:12:03;;;;;;;0.43;0.30;;;26.20;58.50;;;;;;5145216;23;20044;-47
2023/02/25 03:14:25;;;;;;;0.80;0.40;;;26.20;58.40;;;;;;5145669;23;20012;-46
2023/02/25 03:16:55;;;;;;;1.65;0.73;;;26.20;58.20;;;;;;5144923;23;20039;-47
2023/02/25 03:19:45;;;;;;;0.55;0.30;;;26.20;58.30;;;;;;5141832;23;20016;-46
2023/02/25 03:22:12;;;;;;;0.63;0.30;;;26.20;58.20;;;;;;5137355;23;20027;-49
2023/02/25 03:24:56;;;;;;;0.47;0.30;;;26.20;58.20;;;;;;5145092;23;20328;-44
2023/02/25 03:27:34;;;;;;;0.52;0.40;;;26.30;58.20;;;;;;5141434;23;20022;-44
2023/02/25 03:30:11;;;;;;;0.68;0.50;;;26.30;58.20;;;;;;5145494;23;20238;-45
2023/02/25 03:32:38;;;;;;;0.95;0.30;;;26.40;58.20;;;;;;5136579;23;20063;-43
2023/02/25 03:35:03;;;;;;;0.93;0.50;;;26.40;58.10;;;;;;5144286;23;20012;-44
2023/02/25 03:37:30;;;;;;;1.30;0.50;;;26.40;58.10;;;;;;5144873;23;20024;-49
2023/02/25 03:39:57;;;;;;;1.15;0.50;;;26.40;58.10;;;;;;5146023;23;20024;-48
2023/02/25 03:42:28;;;;;;;0.45;0.35;;;26.40;58.00;;;;;;5137068;23;20013;-51
2023/02/25 03:44:54;;;;;;;1.73;0.57;;;26.40;58.00;;;;;;5142136;23;20017;-50
2023/02/25 03:47:18;;;;;;;0.85;0.50;;;26.50;58.00;;;;;;5143841;23;20098;-48
2023/02/25 03:50:02;;;;;;;0.47;0.30;;;26.50;57.90;;;;;;5143685;23;20496;-45
2023/02/25 03:52:26;;;;;;;0.60;0.43;;;26.50;57.90;;;;;;5145338;23;20043;-45
2023/02/25 03:54:54;;;;;;;0.43;0.43;;;26.60;57.90;;;;;;5145294;23;20017;-49
2023/02/25 03:57:17;;;;;;;0.73;0.40;;;26.60;57.80;;;;;;5144719;23;20058;-49
2023/02/25 03:59:39;;;;;;;1.13;0.40;;;26.60;57.80;;;;;;5144576;23;20095;-49
2023/02/25 04:02:02;;;;;;;1.23;0.70;;;26.70;57.80;;;;;;5144258;23;20020;-50
2023/02/25 04:04:24;;;;;;;1.20;0.60;;;26.70;57.60;;;;;;5144917;23;20469;-52
2023/02/25 04:06:47;;;;;;;0.85;0.30;;;26.70;57.60;;;;;;5144885;23;20265;-48
2023/02/25 04:09:09;;;;;;;1.98;0.40;;;26.70;57.60;;;;;;5143840;23;20013;-51
2023/02/25 04:11:32;;;;;;;1.20;0.60;;;26.80;57.50;;;;;;5145187;23;20083;-47
2023/02/25 04:13:55;;;;;;;1.52;0.73;;;26.90;57.50;;;;;;5142948;23;20013;-48
2023/02/25 04:16:17;;;;;;;0.90;0.40;;;26.90;57.40;;;;;;5142908;23;20362;-48
2023/02/25 04:18:41;;;;;;;1.13;0.40;;;26.90;57.30;;;;;;5142376;23;20481;-49
2023/02/25 04:21:08;;;;;;;1.02;0.40;;;27.00;57.30;;;;;;5143418;23;20465;-47
2023/02/25 04:23:30;;;;;;;1.10;0.50;;;27.00;57.20;;;;;;5142584;23;20370;-50
2023/02/25 04:25:53;;;;;;;1.58;0.50;;;27.10;57.10;;;;;;5143585;23;20340;-48
2023/02/25 04:28:15;;;;;;;0.50;0.30;;;27.20;57.00;;;;;;5143261;23;20020;-49
2023/02/25 04:30:38;;;;;;;0.40;0.40;;;27.20;56.90;;;;;;5143658;23;20032;-45
2023/02/25 04:33:01;;;;;;;0.75;0.50;;;27.30;56.80;;;;;;5144356;23;20021;-47
2023/02/25 04:35:23;;;;;;;0.60;0.43;;;27.30;56.80;;;;;;5143508;23;20020;-48
2023/02/25 04:37:45;;;;;;;0.60;0.40;;;27.40;56.70;;;;;;5144974;23;20040;-47
2023/02/25 04:40:14;;;;;;;2.67;0.50;;;27.40;56.50;;;;;;5143462;23;20130;-46
2023/02/25 04:42:37;;;;;;;0.65;0.50;;;27.50;56.50;;;;;;5133790;23;20073;-49
2023/02/25 04:44:59;;;;;;;0.87;0.50;;;27.60;56.30;;;;;;5144627;23;20076;-46
2023/02/25 04:47:22;;;;;;;0.68;0.47;;;27.60;56.10;;;;;;5144781;23;20454;-46
2023/02/25 04:49:44;;;;;;;0.68;0.50;;;27.70;56.10;;;;;;5135016;23;20082;-48
2023/02/25 04:52:07;;;;;;;0.85;0.45;;;27.80;56.00;;;;;;5143233;23;20020;-48
2023/02/25 04:54:29;;;;;;;0.30;0.30;;;27.80;55.70;;;;;;5142293;23;20099;-48
2023/02/25 04:56:51;;;;;;;0.75;0.50;;;27.90;55.70;;;;;;5145112;23;20035;-51
2023/02/25 04:59:14;;;;;;;1.80;0.40;;;28.00;55.60;;;;;;5144915;23;20024;-47
2023/02/25 05:01:38;;;;;;;2.30;0.55;;;28.00;55.50;;;;;;5143412;23;20031;-49
2023/02/25 05:04:00;;;;;;;;;;;28.10;55.60;;;;;;5141031;23;20023;-47
2023/02/25 05:06:28;;;;;;;0.85;0.45;;;28.20;55.20;;;;;;5141490;23;19950;-47
2023/02/25 05:08:51;;;;;;;1.33;0.57;;;28.20;55.20;;;;;;5128247;23;20016;-48
2023/02/25 05:11:13;;;;;;;1.45;0.60;;;28.30;55.20;;;;;;5141680;23;20028;-49
2023/02/25 05:13:36;;;;;;;1.33;0.70;;;28.30;55.10;;;;;;5140736;23;20493;-52
2023/02/25 05:16:12;;;;;;;2.97;0.82;;;28.30;54.60;;;;;;5140896;23;20013;-55
2023/02/25 05:18:40;;;;;;;1.83;0.50;;;28.10;53.80;;;;;;5143349;23;20096;-49
2023/02/25 05:21:02;;;;;;;1.20;0.47;;;27.80;52.70;;;;;;5143304;23;20070;-49
2023/02/25 05:23:25;;;;;;;0.60;0.40;;;27.70;52.40;;;;;;5143255;23;20354;-47
2023/02/25 05:25:47;;;;;;;0.63;0.50;;;27.40;50.90;;;;;;5144198;23;20463;-57
2023/02/25 05:28:11;;;;;;;0.73;0.45;;;27.20;51.10;;;;;;5144140;23;20013;-52
2023/02/25 05:30:33;;;;;;;0.43;0.40;;;27.10;51.10;;;;;;5133303;23;20060;-50
2023/02/25 05:32:56;;;;;;;0.90;0.50;;;26.90;50.80;;;;;;5144282;23;20447;-56
2023/02/25 05:35:19;;;;;;;0.43;0.43;;;26.70;50.70;;;;;;5146475;23;20059;-55
2023/02/25 05:37:41;;;;;;;3.22;0.60;;;26.60;50.60;;;;;;5143818;23;20035;-47
2023/02/25 05:40:05;;;;;;;2.28;0.70;;;26.50;51.20;;;;;;5144703;23;20459;-50
2023/02/25 05:42:28;;;;;;;3.45;0.73;;;26.40;50.90;;;;;;5144716;23;20128;-48
2023/02/25 05:44:51;;;;;;;0.50;0.50;;;26.30;51.10;;;;;;5145809;23;20074;-45
2023/02/25 05:47:14;;;;;;;0.65;0.40;;;26.10;50.20;;;;;;5144173;23;20282;-47
2023/02/25 05:49:36;;;;;;;0.90;0.20;;;26.10;50.40;;;;;;5136030;23;20070;-48
2023/02/25 05:51:58;;;;;;;0.90;0.60;;;25.90;50.60;;;;;;5144785;23;20422;-45
2023/02/25 05:54:21;;;;;;;0.65;0.60;;;25.90;50.60;;;;;;5141256;23;20012;-48
2023/02/25 05:56:43;;;;;;;0.50;0.50;;;25.80;50.50;;;;;;5131778;23;20021;-49
2023/02/25 05:59:06;;;;;;;1.02;0.50;;;25.70;50.90;;;;;;5132050;23;20665;-48
2023/02/25 06:01:30;;;;;;;1.08;0.40;;;25.60;50.50;;;;;;5140017;23;20107;-48
2023/02/25 06:03:57;;;;;;;0.50;0.40;;;25.60;50.40;;;;;;5131905;23;20016;-53
2023/02/25 06:06:23;;;;;;;0.85;0.50;;;25.50;50.60;;;;;;5140057;23;20012;-51
2023/02/25 06:08:46;;;;;;;0.82;0.73;;;25.40;49.90;;;;;;5139100;23;20480;-48
2023/02/25 06:11:09;;;;;;;1.75;0.60;;;25.40;50.00;;;;;;5130186;23;20460;-52
2023/02/25 06:13:32;;;;;;;1.10;0.80;;;25.40;50.40;;;;;;5140444;23;20020;-55
2023/02/25 06:15:54;;;;;;;1.42;0.88;;;25.30;50.40;;;;;;5139954;23;20016;-52
2023/02/25 06:18:17;;;;;;;0.88;0.50;;;25.30;49.90;;;;;;5140106;23;20029;-51
2023/02/25 06:20:39;;;;;;;0.68;0.65;;;25.20;50.10;;;;;;5137580;23;20071;-45
2023/02/25 06:23:02;;;;;;;2.05;1.10;;;25.20;50.10;;;;;;5138149;23;20469;-51
2023/02/25 06:25:28;;;;;;;2.28;0.82;;;25.10;49.90;;;;;;5142614;23;20019;-49
2023/02/25 06:27:51;;;;;;;1.17;0.70;;;25.10;50.10;;;;;;5141890;23;20016;-44
2023/02/25 06:30:13;;;;;;;1.50;0.68;;;25.10;50.40;;;;;;5140601;23;20501;-50
2023/02/25 06:32:36;;;;;;;0.80;0.70;;;25.00;50.40;;;;;;5140778;23;20013;-48
2023/02/25 06:34:58;;;;;;;1.52;0.65;;;25.00;50.30;;;;;;5141260;23;20047;-48
2023/02/25 06:37:21;;;;;;;0.65;0.57;;;25.00;50.30;;;;;;5140373;23;20020;-48
2023/02/25 06:39:43;;;;;;;0.80;0.50;;;25.00;49.90;;;;;;5143544;23;20100;-50
2023/02/25 06:42:06;;;;;;;1.58;0.70;;;24.90;50.00;;;;;;5143460;23;20051;-46
2023/02/25 06:44:29;;;;;;;1.02;0.82;;;24.90;50.20;;;;;;5144535;23;20040;-49
2023/02/25 06:46:55;;;;;;;0.82;0.55;;;24.90;50.10;;;;;;5143299;23;20355;-47
2023/02/25 06:49:18;;;;;;;1.02;0.63;;;24.80;50.10;;;;;;5139486;23;20435;-47
2023/02/25 06:51:40;;;;;;;2.13;0.80;;;24.80;50.10;;;;;;5141193;23;20108;-47
2023/02/25 06:54:04;;;;;;;1.52;0.65;;;24.80;50.10;;;;;;5142492;23;20016;-49
2023/02/25 06:56:27;;;;;;;1.80;0.80;;;24.70;50.20;;;;;;5143714;23;20016;-47
2023/02/25 06:58:51;;;;;;;;;;;24.70;50.30;;;;;;5144318;23;20017;-49
2023/02/25 07:01:15;;;;;;;1.02;0.70;;;24.70;50.30;;;;;;5144676;23;19908;-47
2023/02/25 07:03:38;;;;;;;0.88;0.70;;;24.60;50.00;;;;;;5133364;23;20021;-46
2023/02/25 07:06:00;;;;;;;1.25;0.70;;;24.60;50.20;;;;;;5135306;23;20067;-50
2023/02/25 07:08:22;;;;;;;0.93;0.75;;;24.60;50.10;;;;;;5144405;23;20008;-44
2023/02/25 07:10:45;;;;;;;1.05;0.57;;;24.60;50.10;;;;;;5145673;23;20365;-46
2023/02/25 07:13:09;;;;;;;0.57;0.50;;;24.50;50.00;;;;;;5143224;23;20028;-47
2023/02/25 07:15:32;;;;;;;1.25;0.60;;;24.40;50.00;;;;;;5144609;23;20196;-46
2023/02/25 07:17:54;;;;;;;1.02;0.80;;;24.40;50.10;;;;;;5143684;23;20351;-50
2023/02/25 07:20:17;;;;;;;0.55;0.50;;;24.40;50.30;;;;;;5143413;23;20105;-49
2023/02/25 07:22:40;;;;;;;1.58;0.80;;;24.30;50.80;;;;;;5142663;23;20581;-48
2023/02/25 07:25:03;;;;;;;8.50;4.70;;;24.20;51.10;;;;;;5142102;23;20308;-48
2023/02/25 07:27:26;;;;;;;22.63;14.23;;;24.20;51.00;;;;;;5142670;23;20028;-50
2023/02/25 07:29:48;;;;;;;45.72;25.05;;;24.10;51.40;;;;;;5136113;23;20024;-51
2023/02/25 07:32:10;;;;;;;49.03;28.45;;;24.00;51.60;;;;;;5143260;23;20012;-44
2023/02/25 07:34:33;;;;;;;42.25;28.08;;;23.90;51.80;;;;;;5134252;23;20027;-45
2023/02/25 07:36:55;;;;;;;38.53;24.98;;;23.90;51.40;;;;;;5144026;23;20524;-44
2023/02/25 07:39:18;;;;;;;38.60;25.05;;;23.80;51.60;;;;;;5145356;23;20031;-45
2023/02/25 07:41:40;;;;;;;29.42;21.13;;;23.70;51.50;;;;;;5143710;23;20355;-43
2023/02/25 07:44:04;;;;;;;27.17;19.02;;;23.60;51.80;;;;;;5134086;23;20390;-45
2023/02/25 07:46:26;;;;;;;23.92;15.90;;;23.50;52.00;;;;;;5145182;23;20013;-45
2023/02/25 07:48:49;;;;;;;19.65;13.70;;;23.40;51.60;;;;;;5144525;23;20044;-44
2023/02/25 07:51:15;;;;;;;16.15;12.70;;;23.30;52.00;;;;;;5145507;23;20020;-48
2023/02/25 07:53:39;;;;;;;16.95;11.52;;;23.20;52.20;;;;;;5143313;23;20522;-44
2023/02/25 07:56:01;;;;;;;15.23;9.93;;;23.10;52.10;;;;;;5142596;23;20361;-45
2023/02/25 07:58:23;;;;;;;15.82;8.38;;;23.10;52.40;;;;;;5141428;23;20023;-47
2023/02/25 08:00:47;;;;;;;11.77;7.32;;;23.00;53.30;;;;;;5140921;23;20016;-50
2023/02/25 08:03:09;;;;;;;12.20;6.90;;;22.90;52.80;;;;;;5140075;23;20095;-48
2023/02/25 08:05:35;;;;;;;8.75;5.28;;;22.90;53.20;;;;;;5141109;23;20066;-49
2023/02/25 08:07:57;;;;;;;7.45;4.82;;;22.80;53.20;;;;;;5140676;23;20450;-57
2023/02/25 08:10:20;;;;;;;7.03;4.53;;;22.70;53.20;;;;;;5142612;23;20028;-47
2023/02/25 08:12:43;;;;;;;6.40;4.25;;;22.70;53.20;;;;;;5140976;23;20351;-51
2023/02/25 08:15:06;;;;;;;6.28;4.20;;;22.60;53.50;;;;;;5142465;23;20119;-46
2023/02/25 08:17:31;;;;;;;5.60;3.60;;;22.60;53.50;;;;;;5140367;23;20095;-51
2023/02/25 08:19:53;;;;;;;5.97;3.28;;;22.50;53.50;;;;;;5140845;23;20023;-53
2023/02/25 08:22:16;;;;;;;4.50;2.97;;;22.40;54.20;;;;;;5142920;23;20040;-45
2023/02/25 08:24:39;;;;;;;4.20;2.65;;;22.40;53.50;;;;;;5142417;23;20023;-49
2023/02/25 08:27:02;;;;;;;5.20;2.60;;;22.30;53.80;;;;;;5142454;23;20016;-45
2023/02/25 08:29:24;;;;;;;3.38;2.30;;;22.30;54.00;;;;;;5141025;23;20099;-49
2023/02/25 08:31:49;;;;;;;4.57;2.70;;;22.20;54.20;;;;;;5141904;23;20039;-50
2023/02/25 08:34:12;;;;;;;5.97;2.40;;;22.10;54.70;;;;;;5139858;23;20103;-48
2023/02/25 08:36:35;;;;;;;4.28;2.20;;;22.10;55.60;;;;;;5142619;23;20016;-49
2023/02/25 08:38:59;;;;;;;5.65;1.83;;;22.10;56.30;;;;;;5133951;23;20020;-49
2023/02/25 08:41:22;;;;;;;5.05;2.22;;;22.20;57.10;;;;;;5140345;23;20451;-50
2023/02/25 08:43:47;;;;;;;4.75;2.05;;;22.30;57.60;;;;;;5139260;23;20367;-49
2023/02/25 08:46:10;;;;;;;7.25;1.90;;;22.40;58.10;;;;;;5137191;23;20106;-47
2023/02/25 08:48:34;;;;;;;7.70;1.70;;;22.50;58.50;;;;;;5134454;23;20044;-51
2023/02/25 08:51:00;;;;;;;4.72;1.80;;;22.50;58.80;;;;;;5134083;23;20493;-47
2023/02/25 08:53:23;;;;;;;5.20;1.90;;;22.70;59.10;;;;;;5134762;23;20017;-48
2023/02/25 08:55:46;;;;;;;8.40;1.85;;;22.80;60.50;;;;;;5135660;23;20522;-52
2023/02/25 08:58:08;;;;;;;6.38;2.08;;;22.90;60.20;;;;;;5137230;23;20262;-54
2023/02/25 09:00:31;;;;;;;5.45;1.30;;;23.10;60.30;;;;;;5123180;23;20020;-51
2023/02/25 09:02:53;;;;;;;3.90;1.80;;;23.20;60.20;;;;;;5126645;23;20020;-48
2023/02/25 09:05:16;;;;;;;4.78;1.75;;;23.30;60.30;;;;;;5126547;23;20017;-54
2023/02/25 09:07:38;;;;;;;5.30;1.52;;;23.40;60.30;;;;;;5135870;23;20362;-52
2023/02/25 09:10:03;;;;;;;3.70;1.42;;;23.50;60.40;;;;;;5134671;23;20056;-45
2023/02/25 09:12:25;;;;;;;5.45;1.40;;;23.60;60.50;;;;;;5133492;23;20097;-50
2023/02/25 09:14:49;;;;;;;4.20;1.10;;;23.60;60.40;;;;;;5136237;23;20024;-47
2023/02/25 09:17:11;;;;;;;4.63;1.20;;;23.70;60.50;;;;;;5134348;23;20413;-51
2023/02/25 09:19:37;;;;;;;3.88;1.50;;;23.80;60.40;;;;;;5134266;23;20017;-46
2023/02/25 09:22:00;;;;;;;4.70;1.52;;;23.90;60.50;;;;;;5134991;23;20036;-45
2023/02/25 09:24:23;;;;;;;7.60;1.35;;;24.00;61.20;;;;;;5135462;23;20352;-48
2023/02/25 09:26:46;;;;;;;3.30;1.42;;;24.10;60.70;;;;;;5132964;23;20521;-44
2023/02/25 09:29:09;;;;;;;3.55;1.27;;;24.20;60.50;;;;;;5133924;23;20645;-44
2023/02/25 09:31:33;;;;;;;7.03;1.70;;;24.20;60.40;;;;;;5134395;23;20025;-45
2023/02/25 09:33:55;;;;;;;3.72;1.42;;;24.20;60.50;;;;;;5133542;23;20746;-49
2023/02/25 09:36:19;;;;;;;4.75;1.48;;;24.30;60.50;;;;;;5127049;23;20052;-52
2023/02/25 09:38:44;;;;;;;2.67;1.30;;;24.30;60.60;;;;;;5125892;23;20017;-46
2023/02/25 09:41:27;;;;;;;5.50;1.67;;;24.40;60.60;;;;;;5132705;23;20021;-48
2023/02/25 09:44:14;;;;;;;8.88;1.50;;;24.50;60.80;;;;;;5133484;23;20023;-53
2023/02/25 09:46:43;;;;;;;11.07;2.13;;;24.50;60.70;;;;;;5124739;23;20290;-50
2023/02/25 09:49:32;;;;;;;6.70;1.40;;;24.60;60.80;;;;;;5126561;23;20013;-54
2023/02/25 09:52:04;;;;;;;3.78;1.02;;;24.60;60.60;;;;;;5132142;23;20021;-52
2023/02/25 09:54:46;;;;;;;4.13;0.85;;;24.70;60.60;;;;;;5134676;23;20016;-52
2023/02/25 09:57:22;;;;;;;2.65;0.98;;;24.80;60.70;;;;;;5133935;23;20014;-52
2023/02/25 09:59:46;;;;;;;2.53;1.10;;;24.80;60.80;;;;;;5122933;23;20028;-52
2023/02/25 10:02:29;;;;;;;4.00;1.20;;;24.80;60.70;;;;;;5135561;23;20016;-54
2023/02/25 10:05:03;;;;;;;1.83;0.93;;;24.90;60.80;;;;;;5133678;23;20346;-55
2023/02/25 10:07:35;;;;;;;7.32;1.25;;;24.90;60.80;;;;;;5128935;23;20055;-46
2023/02/25 10:10:12;;;;;;;3.10;0.98;;;25.00;60.80;;;;;;5129407;23;20067;-47
2023/02/25 10:12:50;;;;;;;1.23;0.70;;;25.00;60.70;;;;;;5136107;23;20016;-55
2023/02/25 10:15:22;;;;;;;1.38;0.68;;;25.00;60.60;;;;;;5135766;23;20561;-48
2023/02/25 10:18:13;;;;;;;3.38;1.13;;;25.10;60.60;;;;;;5138781;22;20363;-54
2023/02/25 10:20:37;;;;;;;3.90;0.88;;;25.10;60.60;;;;;;5137674;23;20017;-50
2023/02/25 10:23:05;;;;;;;5.50;0.85;;;25.20;60.60;;;;;;5135067;23;20040;-52
2023/02/25 10:25:31;;;;;;;3.35;0.88;;;25.20;60.70;;;;;;5135560;23;20071;-56
2023/02/25 10:28:04;;;;;;;2.35;0.85;;;25.20;60.60;;;;;;5137738;23;20013;-50
2023/02/25 10:30:38;;;;;;;3.17;0.77;;;25.20;60.50;;;;;;5130009;23;20024;-53
2023/02/25 10:33:06;;;;;;;2.13;0.77;;;25.30;60.60;;;;;;5135768;23;20016;-55
2023/02/25 10:35:31;;;;;;;0.85;0.55;;;25.30;60.60;;;;;;5136274;23;20044;-57
2023/02/25 10:37:54;;;;;;;3.05;1.02;;;25.30;60.60;;;;;;5136685;23;20275;-46
2023/02/25 10:40:20;;;;;;;3.38;1.25;;;25.30;60.60;;;;;;5139284;23;20494;-50
2023/02/25 10:42:54;;;;;;;3.08;1.15;;;25.40;60.60;;;;;;5139243;23;20020;-50
2023/02/25 10:45:35;;;;;;;3.50;0.80;;;25.40;60.40;;;;;;5139205;23;20027;-47
2023/02/25 10:48:12;;;;;;;4.13;1.00;;;25.40;60.30;;;;;;5129531;23;20158;-51
2023/02/25 10:50:35;;;;;;;1.95;0.80;;;25.40;60.30;;;;;;5140946;23;20533;-48
2023/02/25 10:52:59;;;;;;;12.52;1.48;;;25.40;60.90;;;;;;5126466;23;20655;-48
2023/02/25 10:55:50;;;;;;;4.63;0.88;;;25.40;60.70;;;;;;5120533;23;20020;-49
2023/02/25 10:58:33;;;;;;;7.72;1.20;;;25.40;61.20;;;;;;5123546;23;20016;-43
2023/02/25 11:01:00;;;;;;;4.75;1.27;;;25.50;61.30;;;;;;5134963;23;20020;-43
2023/02/25 11:03:24;;;;;;;4.25;1.27;;;25.60;61.30;;;;;;5123548;23;20016;-45
2023/02/25 11:05:46;;;;;;;7.70;0.93;;;25.60;61.20;;;;;;5125906;23;20020;-45
2023/02/25 11:08:28;;;;;;;4.72;1.33;;;25.70;61.10;;;;;;5134446;23;20016;-44
2023/02/25 11:11:19;;;;;;;2.08;0.90;;;25.70;61.10;;;;;;5136230;23;20024;-42
2023/02/25 11:13:41;;;;;;;1.17;0.60;;;25.80;61.20;;;;;;5124005;23;20578;-45
2023/02/25 11:16:11;;;;;;;2.53;0.60;;;25.80;61.20;;;;;;5135337;23;20052;-51
2023/02/25 11:18:34;;;;;;;5.13;0.82;;;25.80;61.10;;;;;;5126793;23;20024;-46
2023/02/25 11:21:01;;;;;;;6.43;0.60;;;25.90;61.20;;;;;;5137349;23;20596;-40
2023/02/25 11:23:47;;;;;;;1.75;1.02;;;25.90;61.20;;;;;;5136630;23;20533;-43
2023/02/25 11:26:32;;;;;;;1.90;0.70;;;26.00;61.40;;;;;;5128007;23;20012;-43
2023/02/25 11:28:55;;;;;;;1.48;0.57;;;26.00;61.20;;;;;;5136983;23;20048;-45
2023/02/25 11:31:21;;;;;;;2.67;0.40;;;26.00;61.30;;;;;;5127184;23;20056;-45
2023/02/25 11:33:50;;;;;;;1.45;0.43;;;26.10;61.30;;;;;;5135890;23;20017;-47
2023/02/25 11:36:19;;;;;;;1.60;0.40;;;26.10;61.20;;;;;;5136165;23;20109;-43
2023/02/25 11:38:43;;;;;;;1.23;0.40;;;26.10;61.10;;;;;;5136048;23;20044;-45
2023/02/25 11:41:30;;;;;;;1.25;0.52;;;26.10;61.10;;;;;;5135768;23;20650;-44
2023/02/25 11:43:53;;;;;;;1.95;0.40;;;26.20;61.10;;;;;;5124020;23;20009;-52
2023/02/25 11:46:21;;;;;;;6.25;0.70;;;26.20;61.10;;;;;;5137310;23;20414;-43
2023/02/25 11:49:09;;;;;;;3.22;0.75;;;26.20;61.10;;;;;;5123217;23;20390;-44
2023/02/25 11:51:47;;;;;;;2.15;0.60;;;26.20;61.00;;;;;;5124789;23;20029;-46
2023/02/25 11:54:20;;;;;;;3.95;0.70;;;26.30;61.00;;;;;;5131499;22;20071;-44
2023/02/25 11:56:54;;;;;;;2.10;0.57;;;26.30;60.80;;;;;;5129614;23;20027;-42
2023/02/25 11:59:37;;;;;;;1.05;0.50;;;26.40;60.90;;;;;;5137011;23;20015;-44
2023/02/25 12:02:19;;;;;;;1.00;0.50;;;26.40;60.90;;;;;;5134657;23;20544;-45
2023/02/25 12:05:15;;;;;;;8.75;0.77;;;26.40;60.80;;;;;;5139016;23;20096;-44
2023/02/25 12:07:58;;;;;;;3.50;0.60;;;26.40;60.70;;;;;;5142367;23;20054;-44
2023/02/25 12:10:43;;;;;;;0.98;0.45;;;26.50;60.80;;;;;;5141134;23;20351;-43
2023/02/25 12:13:12;;;;;;;1.08;0.60;;;26.50;60.80;;;;;;5141399;23;20016;-45
2023/02/25 12:16:16;;;;;;;1.30;0.70;;;26.50;60.70;;;;;;5142938;23;20021;-46
2023/02/25 12:19:04;;;;;;;24.53;2.23;;;26.50;60.60;;;;;;5102610;23;20453;-47
2023/02/25 12:21:59;;;;;;;15.95;2.33;;;26.50;60.30;;;;;;5132902;23;20027;-48
2023/02/25 12:24:27;;;;;;;15.95;2.60;;;26.50;60.50;;;;;;5143756;23;20025;-46
2023/02/25 12:27:08;;;;;;;11.43;2.00;;;26.40;60.60;;;;;;5141683;23;20100;-46
2023/02/25 12:29:37;;;;;;;5.78;1.83;;;26.40;60.60;;;;;;5143736;23;20387;-51
2023/02/25 12:32:22;;;;;;;11.25;1.50;;;26.40;60.60;;;;;;5134901;23;20035;-49
2023/02/25 12:34:59;;;;;;;14.07;2.30;;;26.40;60.70;;;;;;5143583;23;20027;-46
2023/02/25 12:37:40;;;;;;;11.15;1.60;;;26.40;60.70;;;;;;5142950;23;20419;-48
2023/02/25 12:40:31;;;;;;;7.18;1.45;;;26.40;60.80;;;;;;5141467;23;20452;-49
2023/02/25 12:43:00;;;;;;;13.20;1.40;;;26.40;60.90;;;;;;5142036;23;20024;-44
2023/02/25 12:45:47;;;;;;;8.15;0.98;;;26.40;60.80;;;;;;5140769;23;20358;-46
2023/02/25 12:48:25;;;;;;;6.10;1.05;;;26.40;60.80;;;;;;5139947;23;20054;-44